Flight Track Log - Related Links

Times and Time Zones

All times are in EDT time to prevent confusion due to time zone crossing. See the BAW826 flight status page for this flight to view local times or setup timezone preferences in your user account.

Time Position Orientation Groundspeed Altitude Reporting Facility
EDT Latitude Longitude Course Direction KTS MPH feet Rate Location/Type
Thu 05:14:43 PM 51.4770 -0.4840 270° West 137 158 1,300  Level FlightAware ADS-B
Thu 05:15:00 PM 51.4772 -0.5054 270° West 162 186 300 1,680 Descending FlightAware UK
Thu 05:15:08 PM 51.4770 -0.5130 270° West 159 183 2,000 6,000 Climbing FlightAware ADS-B
Thu 05:15:18 PM 51.4770 -0.5220 270° West 169 194 2,100 1,143 Climbing FlightAware ADS-B
Thu 05:15:29 PM 51.4764 -0.5421 267° West 193 222 2,400 1,111 Climbing FlightAware ADS-B
Thu 05:15:45 PM 51.4727 -0.5656 256° West 222 255 2,600 1,161 Climbing FlightAware ADS-B
Thu 05:16:00 PM 51.4686 -0.5912 256° West 247 284 3,000 2,516 Climbing FlightAware ADS-B
Thu 05:16:16 PM 51.4639 -0.6206 256° West 256 295 3,900 3,097 Climbing FlightAware ADS-B
Thu 05:16:31 PM 51.4594 -0.6487 256° West 259 298 4,600 2,160 Climbing FlightAware ADS-B
Thu 05:16:41 PM 51.4566 -0.6662 256° West 258 297 4,800 1,385 Climbing FlightAware ADS-B
Thu 05:16:44 PM 51.4558 -0.6721 258° West 256 295 4,900 2,571 Climbing FlightAware ADS-B
Thu 05:16:48 PM 51.4552 -0.6795 263° West 254 292 5,100 2,571 Climbing FlightAware ADS-B
Thu 05:16:51 PM 51.4549 -0.6851 265° West 253 291 5,200 2,571 Climbing FlightAware ADS-B
Thu 05:16:55 PM 51.4549 -0.6923 270° West 254 292 5,400 3,000 Climbing FlightAware ADS-B
Thu 05:16:59 PM 51.4552 -0.6994 274° West 254 292 5,600 3,429 Climbing FlightAware ADS-B
Thu 05:17:02 PM 51.4556 -0.7054 276° West 254 292 5,800 3,882 Climbing FlightAware ADS-B
Thu 05:17:16 PM 51.4582 -0.7318 279° West 255 293 6,700 3,724 Climbing FlightAware ADS-B
Thu 05:17:31 PM 51.4614 -0.7610 280° West 259 298 7,600 3,290 Climbing FlightAware ADS-B
Thu 05:17:47 PM 51.4647 -0.7900 280° West 262 302 8,400 3,310 Climbing FlightAware ADS-B
Thu 05:18:00 PM 51.4677 -0.8164 280° West 265 305 9,200 387 Climbing FlightAware ADS-B
Thu 05:18:18 PM 51.4721 -0.8523 280° West 282 325 8,600 2,880 Descending FlightAware UK
Thu 05:18:25 PM 51.4733 -0.8635 280° West 273 314 10,400 1,750 Climbing FlightAware ADS-B
Thu 05:18:42 PM 51.4780 -0.9012 280° West 304 350 9,300 1,263 Descending FlightAware UK
Thu 05:18:44 PM 51.4785 -0.9030 280° West 296 341 10,800 667 Climbing FlightAware ADS-B
Thu 05:19:00 PM 51.4852 -0.9401 280° West 328 377 9,500 1,200 Descending FlightAware UK
Thu 05:19:14 PM 51.4905 -0.9705 280° West 330 380 11,400 2,000 Climbing FlightAware ADS-B
Thu 05:19:30 PM 51.4978 -1.0111 280° West 350 403 10,500 2,400 Descending FlightAware UK
Thu 05:19:39 PM 51.5012 -1.0309 280° West 342 394 12,400 2,000 Climbing FlightAware ADS-B
Thu 05:19:54 PM 51.5082 -1.0700 280° West 364 419 11,300 2,600 Descending FlightAware UK
Thu 05:20:09 PM 51.5143 -1.1062 280° West 351 404 13,700 3,000 Climbing FlightAware ADS-B
Thu 05:20:24 PM 51.5211 -1.1453 280° West 364 419 12,800 2,516 Descending FlightAware UK
Thu 05:20:40 PM 51.5277 -1.1835 280° West 358 412 15,000 2,333 Climbing FlightAware ADS-B
Thu 05:21:00 PM 51.5370 -1.2367 280° West 374 430 14,200 2,600 Descending FlightAware UK
Thu 05:21:10 PM 51.5413 -1.2621 280° West 361 415 16,300 2,600 Climbing FlightAware ADS-B
Thu 05:21:30 PM 51.5504 -1.3142 280° West 380 437 15,500 2,323 Descending FlightAware UK
Thu 05:21:41 PM 51.5548 -1.3403 280° West 365 420 17,500 2,200 Climbing FlightAware ADS-B
Thu 05:22:00 PM 51.5638 -1.3923 280° West 386 444 16,600 2,000 Descending FlightAware UK
Thu 05:22:11 PM 51.5685 -1.4199 280° West 373 429 18,500 2,000 Climbing FlightAware ADS-B
Thu 05:22:30 PM 51.5776 -1.4726 280° West 392 451 17,600 2,200 Descending FlightAware UK
Thu 05:22:41 PM 51.5826 -1.5024 280° West 379 436 19,600 2,276 Climbing FlightAware ADS-B
Thu 05:22:59 PM 51.5914 -1.5536 280° West 398 458 18,700 1,935 Descending FlightAware UK
Thu 05:23:12 PM 51.5971 -1.5871 280° West 384 442 20,600 2,000 Climbing FlightAware ADS-B
Thu 05:23:29 PM 51.6054 -1.6359 280° West 402 463 19,700 1,935 Descending FlightAware UK
Thu 05:23:43 PM 51.6113 -1.6709 280° West 388 447 21,600 1,548 Climbing FlightAware ADS-B
Thu 05:24:00 PM 51.6196 -1.7197 280° West 410 472 20,500 2,000 Descending FlightAware UK
Thu 05:24:13 PM 51.6256 -1.7557 280° West 390 449 22,600 2,400 Climbing FlightAware ADS-B
Thu 05:24:30 PM 51.6337 -1.8037 280° West 414 476 21,700 2,000 Descending FlightAware UK
Thu 05:24:43 PM 51.6394 -1.8380 280° West 389 448 23,600 1,400 Climbing FlightAware ADS-B
Thu 05:25:00 PM 51.6478 -1.8870 280° West 418 481 22,400 1,400 Descending FlightAware UK
Thu 05:25:13 PM 51.6536 -1.9228 280° West 394 453 24,300 1,655 Climbing FlightAware ADS-B
Thu 05:25:29 PM 51.6618 -1.9711 280° West 422 486 23,200 1,400 Descending FlightAware UK
Thu 05:25:43 PM 51.6680 -2.0096 280° West 401 461 25,000 1,400 Climbing FlightAware ADS-B
Thu 05:25:59 PM 51.6760 -2.0575 280° West 428 493 23,900 1,548 Descending FlightAware UK
Thu 05:26:14 PM 51.6827 -2.0981 280° West 405 466 25,800 1,400 Climbing FlightAware ADS-B
Thu 05:26:29 PM 51.6905 -2.1452 280° West 432 497 24,600 1,400 Descending FlightAware UK
Thu 05:26:44 PM 51.6973 -2.1869 280° West 409 471 26,500 1,200 Climbing FlightAware ADS-B
Thu 05:26:59 PM 51.7049 -2.2325 280° West 436 502 25,200 968 Descending FlightAware UK
Thu 05:27:15 PM 51.7120 -2.2761 280° West 416 479 27,000 1,333 Climbing FlightAware ADS-B
Thu 05:27:35 PM 51.7225 -2.3401 280° West 438 504 26,000 1,400 Descending FlightAware UK
Thu 05:27:45 PM 51.7269 -2.3674 280° West 419 482 27,700 600 Climbing FlightAware ADS-B
Thu 05:28:05 PM 51.7373 -2.4306 280° West 438 504 26,300 600 Descending FlightAware UK
Thu 05:28:15 PM 51.7420 -2.4609 280° West 432 497 28,000 1,000 Climbing FlightAware ADS-B
Thu 05:28:35 PM 51.7523 -2.5238 280° West 440 506 26,800 1,355 Descending FlightAware UK
Thu 05:28:46 PM 51.7575 -2.5565 280° West 435 501 28,700 1,800 Climbing FlightAware ADS-B
Thu 05:29:05 PM 51.7674 -2.6178 280° West 442 509 27,700 2,000 Descending FlightAware UK
Thu 05:29:16 PM 51.7727 -2.6511 280° West 428 493 29,700 1,600 Climbing FlightAware ADS-B
Thu 05:29:35 PM 51.7824 -2.7115 280° West 446 513 28,500 581 Descending FlightAware UK
Thu 05:29:47 PM 51.7879 -2.7462 280° West 437 503 30,000  Climbing FlightAware ADS-B
Thu 05:30:05 PM 51.7971 -2.8044 280° West 458 527 28,500 -2,500 Descending FlightAware UK
Thu 05:30:23 PM 51.8063 -2.8625 284° West 458 527 28,500 2,500 Level FlightAware UK
Thu 05:30:41 PM 51.8148 -2.9168 284° West 441 507 30,000  Climbing FlightAware ADS-B
Thu 05:30:59 PM 51.8243 -2.9767 284° West 460 529 28,500  Descending FlightAware UK
Thu 05:31:13 PM 51.8308 -3.0193 284° West 439 505 30,000  Climbing FlightAware ADS-B
Thu 05:31:29 PM 51.8392 -3.0726 284° West 462 532 28,500  Descending FlightAware UK
Thu 05:31:43 PM 51.8459 -3.1158 284° West 438 504 30,000  Climbing FlightAware ADS-B
Thu 05:31:59 PM 51.8540 -3.1677 284° West 460 529 28,500  Descending FlightAware UK
Thu 05:32:14 PM 51.8610 -3.2134 284° West 437 503 30,000  Climbing FlightAware ADS-B
Thu 05:32:29 PM 51.8687 -3.2628 284° West 462 532 28,500 200 Descending FlightAware UK
Thu 05:32:44 PM 51.8758 -3.3099 284° West 435 501 30,100  Climbing FlightAware ADS-B
Thu 05:32:59 PM 51.8831 -3.3568 284° West 460 529 28,500 -188 Descending FlightAware UK
Thu 05:33:16 PM 51.8908 -3.4080 284° West 433 498 30,000  Climbing FlightAware ADS-B
Thu 05:33:35 PM 51.9003 -3.4698 284° West 460 529 28,500  Descending FlightAware UK
Thu 05:33:46 PM 51.9052 -3.5028 284° West 432 497 30,000  Climbing FlightAware ADS-B
Thu 05:34:04 PM 51.9145 -3.5629 284° West 462 532 28,500  Descending FlightAware UK
Thu 05:34:17 PM 51.9197 -3.5984 284° West 429 494 30,000  Climbing FlightAware ADS-B
Thu 05:34:35 PM 51.9286 -3.6571 284° West 462 532 28,500  Descending FlightAware UK
Thu 05:34:49 PM 51.9349 -3.6984 284° West 427 491 30,000  Climbing FlightAware ADS-B
Thu 05:35:04 PM 51.9426 -3.7496 284° West 458 527 28,500  Descending FlightAware UK
Thu 05:35:19 PM 51.9490 -3.7926 284° West 427 491 30,000 -200 Climbing FlightAware ADS-B
Thu 05:35:34 PM 51.9565 -3.8424 284° West 460 529 28,400  Descending FlightAware UK
Thu 05:35:50 PM 51.9631 -3.8881 284° West 426 490 30,000  Climbing FlightAware ADS-B
Thu 05:36:10 PM 51.9727 -3.9538 284° West 458 527 28,400  Descending FlightAware UK
Thu 05:36:21 PM 51.9772 -3.9833 284° West 425 489 30,000  Climbing FlightAware ADS-B
Thu 05:36:40 PM 51.9865 -4.0458 284° West 458 527 28,400  Descending FlightAware UK
Thu 05:36:52 PM 51.9912 -4.0788 284° West 426 490 30,000  Climbing FlightAware ADS-B
Thu 05:37:10 PM 52.0000 -4.1388 284° West 460 529 28,400 -2,667 Descending FlightAware UK
Thu 05:37:28 PM 52.0081 -4.1945 283° West 460 529 28,400  Level FlightAware UK
Thu 05:37:46 PM 52.0162 -4.2503 283° West 462 532 28,400 4,800 Level FlightAware UK
Thu 05:37:48 PM 52.0150 -4.2420 283° West 425 489 30,000 333 Climbing FlightAware ADS-B
Thu 05:38:04 PM 52.0244 -4.3060 283° West 462 532 28,500 -2,647 Descending FlightAware UK
Thu 05:38:22 PM 52.0324 -4.3618 283° West 462 532 28,500 3,333 Level FlightAware UK
Thu 05:38:31 PM 52.0358 -4.3864 283° West 425 489 30,000  Climbing FlightAware ADS-B
Thu 05:38:46 PM 52.0430 -4.4354 283° West 460 529 28,500  Descending FlightAware UK
Thu 05:39:03 PM 52.0490 -4.4770 283° West 421 484 30,000  Climbing FlightAware ADS-B
Thu 05:39:04 PM 52.0509 -4.4909 283° West 462 532 28,500 -4,737 Descending FlightAware UK
Thu 05:39:22 PM 52.0590 -4.5462 283° West 464 534 28,500 -333 Level FlightAware UK
Thu 05:39:40 PM 52.0668 -4.6014 283° West 460 529 28,300 2,323 Descending FlightAware UK
Thu 05:39:53 PM 52.0710 -4.6300 283° West 415 478 29,700 -800 Climbing FlightAware ADS-B
Thu 05:40:10 PM 52.0794 -4.6923 283° West 460 529 27,900 -3,600 Descending FlightAware UK
Thu 05:40:28 PM 52.0868 -4.7459 283° West 458 527 27,600 2,571 Descending FlightAware UK
Thu 05:40:38 PM 52.0900 -4.7670 283° West 414 476 29,100 -1,000 Climbing FlightAware ADS-B
Thu 05:40:58 PM 52.0995 -4.8362 283° West 460 529 27,100 -3,632 Descending FlightAware UK
Thu 05:41:16 PM 52.1115 -4.8880 291° West 462 532 26,800 3,900 Descending FlightAware UK
Thu 05:41:18 PM 52.1110 -4.8860 291° West 401 461 28,400 -1,000 Climbing FlightAware ADS-B
Thu 05:41:34 PM 52.1287 -4.9330 291° West 464 534 26,500 -1,000 Descending FlightAware UK
Thu 05:41:48 PM 52.1430 -4.9570 291° West 378 435 27,900 -800 Climbing FlightAware ADS-B
Thu 05:42:04 PM 52.1673 -4.9892 291° West 456 525 26,100 -3,706 Descending FlightAware UK
Thu 05:42:22 PM 52.1915 -5.0209 321° Northwest 456 525 25,800 3,000 Descending FlightAware UK
Thu 05:42:28 PM 52.1950 -5.0260 321° Northwest 374 430 27,300 -1,000 Climbing FlightAware ADS-B
Thu 05:42:46 PM 52.2238 -5.0633 321° Northwest 454 522 25,400 -3,667 Descending FlightAware UK
Thu 05:43:04 PM 52.2481 -5.0951 321° Northwest 452 520 25,100 3,273 Descending FlightAware UK
Thu 05:43:08 PM 52.2500 -5.0980 321° Northwest 374 430 26,600 -1,000 Climbing FlightAware ADS-B
Thu 05:43:28 PM 52.2805 -5.1376 321° Northwest 448 516 24,700 -3,474 Descending FlightAware UK
Thu 05:43:46 PM 52.3049 -5.1698 321° Northwest 448 516 24,400 2,880 Descending FlightAware UK
Thu 05:43:53 PM 52.3100 -5.1770 321° Northwest 374 430 25,900 -1,000 Climbing FlightAware ADS-B
Thu 05:44:10 PM 52.3373 -5.2124 321° Northwest 444 511 24,000 -3,771 Descending FlightAware UK
Thu 05:44:28 PM 52.3616 -5.2441 321° Northwest 442 509 23,700 3,391 Descending FlightAware UK
Thu 05:44:33 PM 52.3590 -5.2410 321° Northwest 371 427 25,300 -1,000 Climbing FlightAware ADS-B
Thu 05:44:52 PM 52.3937 -5.2864 321° Northwest 438 504 23,300 -3,730 Descending FlightAware UK
Thu 05:45:10 PM 52.4184 -5.3154 324° Northwest 438 504 23,000 2,769 Descending FlightAware UK
Thu 05:45:18 PM 52.4230 -5.3200 324° Northwest 364 419 24,500 -1,000 Climbing FlightAware ADS-B
Thu 05:45:34 PM 52.4546 -5.3435 324° Northwest 436 502 22,600 -3,706 Descending FlightAware UK
Thu 05:45:52 PM 52.4818 -5.3636 336° Northwest 434 499 22,400 3,250 Descending FlightAware UK
Thu 05:45:58 PM 52.4810 -5.3630 336° Northwest 357 411 23,900 -1,000 Climbing FlightAware ADS-B
Thu 05:46:16 PM 52.5180 -5.3900 336° Northwest 430 495 22,000 -3,667 Descending FlightAware UK
Thu 05:46:34 PM 52.5450 -5.4097 336° Northwest 430 495 21,700 3,273 Descending FlightAware UK
Thu 05:46:38 PM 52.5410 -5.4070 336° Northwest 355 409 23,200 -1,250 Climbing FlightAware ADS-B
Thu 05:46:58 PM 52.5811 -5.4360 336° Northwest 428 493 21,200 -4,579 Descending FlightAware UK
Thu 05:47:16 PM 52.6082 -5.4557 336° Northwest 424 488 20,300 1,200 Descending FlightAware UK
Thu 05:47:23 PM 52.6110 -5.4580 336° Northwest 357 411 21,700 -2,750 Climbing FlightAware ADS-B
Thu 05:47:40 PM 52.6443 -5.4820 336° Northwest 422 486 19,200 -5,829 Descending FlightAware UK
Thu 05:47:58 PM 52.6714 -5.5018 336° Northwest 420 483 18,300 1,565 Descending FlightAware UK
Thu 05:48:03 PM 52.6670 -5.4990 336° Northwest 356 410 19,800 -2,750 Climbing FlightAware ADS-B
Thu 05:48:22 PM 52.7076 -5.5283 336° Northwest 412 474 17,200 -5,676 Descending FlightAware UK
Thu 05:48:40 PM 52.7347 -5.5481 336° Northwest 412 474 16,300 1,154 Descending FlightAware UK
Thu 05:48:48 PM 52.7390 -5.5520 336° Northwest 356 410 17,700 -2,750 Climbing FlightAware ADS-B
Thu 05:49:04 PM 52.7708 -5.5746 336° Northwest 404 465 15,200 -5,824 Descending FlightAware UK
Thu 05:49:22 PM 52.7978 -5.5944 336° Northwest 400 460 14,400 1,500 Descending FlightAware UK
Thu 05:49:28 PM 52.7980 -5.5950 336° Northwest 353 406 15,800 -3,000 Climbing FlightAware ADS-B
Thu 05:49:46 PM 52.8336 -5.6209 336° Northwest 396 456 13,200 -5,667 Descending FlightAware UK
Thu 05:50:04 PM 52.8603 -5.6405 336° Northwest 394 453 12,400 2,727 Descending FlightAware UK
Thu 05:50:08 PM 52.8520 -5.6350 336° Northwest 351 404 14,200 -2,750 Climbing FlightAware ADS-B
Thu 05:50:28 PM 52.8957 -5.6668 336° Northwest 384 442 11,300 -6,000 Descending FlightAware UK
Thu 05:50:46 PM 52.9220 -5.6864 336° Northwest 380 437 10,400 1,440 Descending FlightAware UK
Thu 05:50:53 PM 52.9220 -5.6860 336° Northwest 346 398 11,900 -2,500 Climbing FlightAware ADS-B
Thu 05:51:10 PM 52.9567 -5.7124 336° Northwest 372 428 9,400 -5,829 Descending FlightAware UK
Thu 05:51:28 PM 52.9828 -5.7314 336° Northwest 372 428 8,500 1,826 Descending FlightAware UK
Thu 05:51:33 PM 52.9820 -5.7300 336° Northwest 341 392 10,100 -2,000 Climbing FlightAware ADS-B
Thu 05:51:52 PM 53.0173 -5.7570 336° Northwest 362 417 7,700 -2,200 Descending FlightAware UK
Thu 05:52:03 PM 53.0240 -5.7610 336° Northwest 329 379 9,000 -2,600 Climbing FlightAware ADS-B
Thu 05:52:22 PM 53.0582 -5.7874 336° Northwest 356 410 6,400 -2,640 Descending FlightAware UK
Thu 05:52:28 PM 53.0590 -5.7880 336° Northwest 322 371 7,900 -1,500 Climbing FlightAware ADS-B
Thu 05:52:46 PM 53.0901 -5.8113 336° Northwest 342 394 5,800 -1,400 Descending FlightAware UK
Thu 05:52:58 PM 53.0990 -5.8170 336° Northwest 302 348 7,200 2,667 Climbing FlightAware ADS-B
Thu 05:53:13 PM 53.1180 -5.8300 338° Northwest 287 330 7,000 -4,000 Descending FlightAware ADS-B
Thu 05:53:28 PM 53.1448 -5.8414 338° Northwest 304 350 5,200 -960 Descending FlightAware UK
Thu 05:53:38 PM 53.1450 -5.8410 338° Northwest 270 311 6,600 -800 Climbing FlightAware ADS-B
Thu 05:53:58 PM 53.1832 -5.8574 338° Northwest 288 331 4,800 -600 Descending FlightAware UK
Thu 05:54:08 PM 53.1840 -5.8570 338° Northwest 250 288 6,300 3,120 Climbing FlightAware ADS-B
Thu 05:54:23 PM 53.1980 -5.8630 346° North 238 274 6,100 -750 Descending FlightAware ADS-B
Thu 05:54:48 PM 53.2260 -5.8740 347° North 223 257 5,800 -764 Descending FlightAware ADS-B
Thu 05:55:18 PM 53.2530 -5.8850 346° North 215 247 5,400 -857 Descending FlightAware ADS-B
Thu 05:55:58 PM 53.2930 -5.8810 North 206 237 4,800 -686 Descending FlightAware ADS-B
Thu 05:56:28 PM 53.3170 -5.8630 24° Northeast 190 219 4,600 -436 Descending FlightAware ADS-B
Thu 05:56:53 PM 53.3370 -5.8480 24° Northeast 178 205 4,400 -600 Descending FlightAware ADS-B
Thu 05:57:08 PM 53.3480 -5.8400 23° Northeast 171 197 4,200 -514 Descending FlightAware ADS-B
Thu 05:57:28 PM 53.3610 -5.8320 20° North 153 176 4,100 -462 Descending FlightAware ADS-B
Thu 05:58:13 PM 53.3830 -5.8690 315° West 162 186 3,700 -554 Descending FlightAware ADS-B
Thu 05:58:33 PM 53.3910 -5.8950 297° West 160 184 3,500 -533 Descending FlightAware ADS-B
Thu 05:58:58 PM 53.3980 -5.9220 294° West 162 186 3,300 -545 Descending FlightAware ADS-B
Thu 05:59:28 PM 53.4030 -5.9590 283° West 168 193 3,000 -700 Descending FlightAware ADS-B
Thu 05:59:58 PM 53.4060 -5.9980 277° West 164 189 2,600 -514 Descending FlightAware ADS-B
Thu 06:00:38 PM 53.4090 -6.0450 276° West 147 169 2,400 -343 Descending FlightAware ADS-B
Thu 06:01:08 PM 53.4110 -6.0790 276° West 149 171 2,200 -655 Descending FlightAware ADS-B
Thu 06:01:33 PM 53.4120 -6.1100 273° West 143 165 1,800 -873 Descending FlightAware ADS-B
Thu 06:02:03 PM 53.4140 -6.1410 276° West 138 159 1,400 -764 Descending FlightAware ADS-B
Thu 06:02:28 PM 53.4160 -6.1660 278° West 125 144 1,100 -655 Descending FlightAware ADS-B
Thu 06:02:58 PM 53.4170 -6.1950 273° West 124 143 800 -522 Descending FlightAware ADS-B
Thu 06:04:23 PM 53.4220 -6.2740 276° West 129 148 100 -494 Descending FlightAware ADS-B
Thu 06:06:00 PM 53.4213 -6.2701 106° East  Level Estimated

Login

Don't have an account? Register now (free) for customized features, flight alerts, and more!